This is the latest recevied weather packets stored in our database for station/object GW7287. If no packets are shown the sender has not sent any weather packets the latest 10 day(s).
| Time | Temp. | Humidity | Pressure | Rain* | Wind** | Luminosity | Snow |
|---|---|---|---|---|---|---|---|
| 1777712569 | 15° C | 81% | 931.8 hPa | - | - | - | - |
| 1777708879 | 14.44° C | 86% | 931.7 hPa | - | - | - | - |
| 1777705347 | 12.78° C | 91% | 931.7 hPa | - | - | - | - |
| 1777701771 | 11.67° C | 94% | 931.5 hPa | - | - | - | - |
| 1777698246 | 12.22° C | 91% | 931.8 hPa | - | - | - | - |
| 1777694629 | 12.78° C | 89% | 932 hPa | - | - | - | - |
| 1777691036 | 13.33° C | 91% | 932.5 hPa | - | - | - | - |
| 1777687230 | 13.33° C | 94% | 932.6 hPa | - | - | - | - |
| 1777683776 | 13.33° C | 93% | 932.8 hPa | - | - | - | - |
| 1777680195 | 13.89° C | 93% | 933.3 hPa | - | - | - | - |
| 1777676499 | 14.44° C | 89% | 933.5 hPa | - | - | - | - |
| 1777672970 | 17.22° C | 62% | 933.1 hPa | - | - | - | - |
| 1777669372 | 18.33° C | 56% | 932.7 hPa | - | - | - | - |
| 1777665827 | 19.44° C | 51% | 932.3 hPa | - | - | - | - |
| 1777662095 | 21.11° C | 44% | 932.1 hPa | - | - | - | - |
| 1777658429 | 22.78° C | 36% | 932 hPa | - | - | - | - |
| 1777655069 | 23.33° C | 36% | 932.2 hPa | - | - | - | - |
| 1777651451 | 23.33° C | 38% | 932.7 hPa | - | - | - | - |
| 1777647742 | 22.78° C | 36% | 933 hPa | - | - | - | - |
| 1777644036 | 22.22° C | 39% | 933.1 hPa | - | - | - | - |
| 1777640564 | 21.11° C | 46% | 933.5 hPa | - | - | - | - |
| 1777636948 | 19.44° C | 51% | 933.7 hPa | - | - | - | - |
| 1777633428 | 18.33° C | 62% | 933.8 hPa | - | - | - | - |
| 1777629827 | 16.67° C | 66% | 933.9 hPa | - | - | - | - |
| 1777626095 | 13.89° C | 77% | 933.7 hPa | - | - | - | - |
* Rain since midnight (hover to see other rain measurements)
** Current wind speed in m/s (hover to see current wind gust speed)